sensor_id;sensor_type;location;lat;lon;timestamp;P1;durP1;ratioP1;P2;durP2;ratioP2
67554;SDS011;54385;53.516;49.456;2024-01-15T00:01:05;0.70;;;0.60;;
67554;SDS011;54385;53.516;49.456;2024-01-15T00:03:35;1.10;;;0.75;;
67554;SDS011;54385;53.516;49.456;2024-01-15T00:06:02;1.02;;;0.70;;
67554;SDS011;54385;53.516;49.456;2024-01-15T00:08:29;1.13;;;0.60;;
67554;SDS011;54385;53.516;49.456;2024-01-15T00:10:56;1.05;;;0.70;;
67554;SDS011;54385;53.516;49.456;2024-01-15T00:13:23;0.98;;;0.80;;
67554;SDS011;54385;53.516;49.456;2024-01-15T00:15:50;0.77;;;0.60;;
67554;SDS011;54385;53.516;49.456;2024-01-15T00:18:17;0.73;;;0.60;;
67554;SDS011;54385;53.516;49.456;2024-01-15T00:20:44;1.02;;;0.70;;
67554;SDS011;54385;53.516;49.456;2024-01-15T00:23:11;0.80;;;0.65;;
67554;SDS011;54385;53.516;49.456;2024-01-15T00:25:38;0.90;;;0.80;;
67554;SDS011;54385;53.516;49.456;2024-01-15T00:28:05;0.60;;;0.60;;
67554;SDS011;54385;53.516;49.456;2024-01-15T00:30:32;1.02;;;0.70;;
67554;SDS011;54385;53.516;49.456;2024-01-15T00:32:59;0.60;;;0.60;;
67554;SDS011;54385;53.516;49.456;2024-01-15T00:35:26;0.50;;;0.40;;
67554;SDS011;54385;53.516;49.456;2024-01-15T00:37:53;0.90;;;0.70;;
67554;SDS011;54385;53.516;49.456;2024-01-15T00:40:20;0.80;;;0.57;;
67554;SDS011;54385;53.516;49.456;2024-01-15T00:42:46;0.80;;;0.65;;
67554;SDS011;54385;53.516;49.456;2024-01-15T00:45:13;0.85;;;0.60;;
67554;SDS011;54385;53.516;49.456;2024-01-15T00:47:46;0.70;;;0.60;;
67554;SDS011;54385;53.516;49.456;2024-01-15T00:50:31;0.70;;;0.60;;
67554;SDS011;54385;53.516;49.456;2024-01-15T00:53:18;2.13;;;0.80;;
67554;SDS011;54385;53.516;49.456;2024-01-15T00:56:06;1.23;;;0.80;;
67554;SDS011;54385;53.516;49.456;2024-01-15T00:58:36;0.90;;;0.63;;
67554;SDS011;54385;53.516;49.456;2024-01-15T01:01:05;0.73;;;0.60;;
67554;SDS011;54385;53.516;49.456;2024-01-15T01:03:32;0.80;;;0.70;;
67554;SDS011;54385;53.516;49.456;2024-01-15T01:05:59;0.47;;;0.47;;
67554;SDS011;54385;53.516;49.456;2024-01-15T01:08:44;0.80;;;0.70;;
67554;SDS011;54385;53.516;49.456;2024-01-15T01:11:14;0.52;;;0.40;;
67554;SDS011;54385;53.516;49.456;2024-01-15T01:13:42;0.52;;;0.40;;
67554;SDS011;54385;53.516;49.456;2024-01-15T01:16:08;0.68;;;0.60;;
67554;SDS011;54385;53.516;49.456;2024-01-15T01:18:35;0.93;;;0.60;;
67554;SDS011;54385;53.516;49.456;2024-01-15T01:21:02;1.25;;;0.68;;
67554;SDS011;54385;53.516;49.456;2024-01-15T01:23:29;0.75;;;0.50;;
67554;SDS011;54385;53.516;49.456;2024-01-15T01:25:59;0.50;;;0.47;;
67554;SDS011;54385;53.516;49.456;2024-01-15T01:28:26;0.85;;;0.52;;
67554;SDS011;54385;53.516;49.456;2024-01-15T01:30:53;0.60;;;0.60;;
67554;SDS011;54385;53.516;49.456;2024-01-15T01:33:20;0.60;;;0.57;;
67554;SDS011;54385;53.516;49.456;2024-01-15T01:36:07;1.25;;;0.60;;
67554;SDS011;54385;53.516;49.456;2024-01-15T01:38:55;1.25;;;0.60;;
67554;SDS011;54385;53.516;49.456;2024-01-15T01:41:23;0.73;;;0.50;;
67554;SDS011;54385;53.516;49.456;2024-01-15T01:43:50;0.60;;;0.50;;
67554;SDS011;54385;53.516;49.456;2024-01-15T01:46:19;0.93;;;0.70;;
67554;SDS011;54385;53.516;49.456;2024-01-15T01:48:46;0.52;;;0.50;;
67554;SDS011;54385;53.516;49.456;2024-01-15T01:51:18;0.90;;;0.60;;
67554;SDS011;54385;53.516;49.456;2024-01-15T01:53:49;0.65;;;0.43;;
67554;SDS011;54385;53.516;49.456;2024-01-15T01:56:17;0.70;;;0.52;;
67554;SDS011;54385;53.516;49.456;2024-01-15T01:58:44;0.68;;;0.55;;
67554;SDS011;54385;53.516;49.456;2024-01-15T02:01:12;0.60;;;0.47;;
67554;SDS011;54385;53.516;49.456;2024-01-15T02:06:24;0.88;;;0.70;;
67554;SDS011;54385;53.516;49.456;2024-01-15T02:09:10;0.60;;;0.50;;
67554;SDS011;54385;53.516;49.456;2024-01-15T02:11:41;0.65;;;0.50;;
67554;SDS011;54385;53.516;49.456;2024-01-15T02:14:13;0.50;;;0.50;;
67554;SDS011;54385;53.516;49.456;2024-01-15T02:16:41;1.05;;;0.70;;
67554;SDS011;54385;53.516;49.456;2024-01-15T02:19:07;0.70;;;0.52;;
67554;SDS011;54385;53.516;49.456;2024-01-15T02:21:42;0.57;;;0.50;;
67554;SDS011;54385;53.516;49.456;2024-01-15T02:24:09;0.63;;;0.60;;
67554;SDS011;54385;53.516;49.456;2024-01-15T02:26:35;0.70;;;0.50;;
67554;SDS011;54385;53.516;49.456;2024-01-15T02:29:05;0.77;;;0.50;;
67554;SDS011;54385;53.516;49.456;2024-01-15T02:34:02;0.70;;;0.40;;
67554;SDS011;54385;53.516;49.456;2024-01-15T02:36:30;0.60;;;0.50;;
67554;SDS011;54385;53.516;49.456;2024-01-15T02:38:56;0.80;;;0.60;;
67554;SDS011;54385;53.516;49.456;2024-01-15T02:41:42;0.63;;;0.57;;
67554;SDS011;54385;53.516;49.456;2024-01-15T02:44:11;0.70;;;0.50;;
67554;SDS011;54385;53.516;49.456;2024-01-15T02:46:41;0.63;;;0.50;;
67554;SDS011;54385;53.516;49.456;2024-01-15T02:49:08;0.52;;;0.50;;
67554;SDS011;54385;53.516;49.456;2024-01-15T02:51:53;0.90;;;0.60;;
67554;SDS011;54385;53.516;49.456;2024-01-15T02:54:20;0.98;;;0.55;;
67554;SDS011;54385;53.516;49.456;2024-01-15T02:56:46;1.02;;;0.65;;
67554;SDS011;54385;53.516;49.456;2024-01-15T03:01:58;0.90;;;0.50;;
67554;SDS011;54385;53.516;49.456;2024-01-15T03:04:25;0.65;;;0.60;;
67554;SDS011;54385;53.516;49.456;2024-01-15T03:06:52;1.10;;;0.50;;
67554;SDS011;54385;53.516;49.456;2024-01-15T03:09:18;0.52;;;0.40;;
67554;SDS011;54385;53.516;49.456;2024-01-15T03:11:45;0.45;;;0.40;;
67554;SDS011;54385;53.516;49.456;2024-01-15T03:16:59;0.93;;;0.52;;
67554;SDS011;54385;53.516;49.456;2024-01-15T03:19:26;1.95;;;0.40;;
67554;SDS011;54385;53.516;49.456;2024-01-15T03:21:53;1.45;;;0.73;;
67554;SDS011;54385;53.516;49.456;2024-01-15T03:27:24;0.80;;;0.50;;
67554;SDS011;54385;53.516;49.456;2024-01-15T03:29:51;0.93;;;0.63;;
67554;SDS011;54385;53.516;49.456;2024-01-15T03:32:18;4.07;;;0.57;;
67554;SDS011;54385;53.516;49.456;2024-01-15T03:34:47;0.70;;;0.60;;
67554;SDS011;54385;53.516;49.456;2024-01-15T03:37:43;0.90;;;0.60;;
67554;SDS011;54385;53.516;49.456;2024-01-15T03:40:14;1.13;;;0.60;;
67554;SDS011;54385;53.516;49.456;2024-01-15T03:42:41;0.95;;;0.70;;
67554;SDS011;54385;53.516;49.456;2024-01-15T03:45:08;2.35;;;0.90;;
67554;SDS011;54385;53.516;49.456;2024-01-15T03:47:37;1.70;;;0.63;;
67554;SDS011;54385;53.516;49.456;2024-01-15T03:50:06;0.52;;;0.50;;
67554;SDS011;54385;53.516;49.456;2024-01-15T03:52:44;1.05;;;0.80;;
67554;SDS011;54385;53.516;49.456;2024-01-15T03:55:11;1.30;;;0.70;;
67554;SDS011;54385;53.516;49.456;2024-01-15T03:57:38;1.38;;;0.68;;
67554;SDS011;54385;53.516;49.456;2024-01-15T04:00:08;1.45;;;0.80;;
67554;SDS011;54385;53.516;49.456;2024-01-15T04:02:36;1.58;;;0.85;;
67554;SDS011;54385;53.516;49.456;2024-01-15T04:05:06;1.88;;;0.70;;
67554;SDS011;54385;53.516;49.456;2024-01-15T04:07:34;0.75;;;0.75;;
67554;SDS011;54385;53.516;49.456;2024-01-15T04:10:05;2.08;;;0.80;;
67554;SDS011;54385;53.516;49.456;2024-01-15T04:12:35;0.93;;;0.65;;
67554;SDS011;54385;53.516;49.456;2024-01-15T04:15:05;0.85;;;0.68;;
67554;SDS011;54385;53.516;49.456;2024-01-15T04:17:41;1.15;;;0.68;;
67554;SDS011;54385;53.516;49.456;2024-01-15T04:20:15;1.10;;;0.90;;
67554;SDS011;54385;53.516;49.456;2024-01-15T04:22:46;2.22;;;0.88;;
67554;SDS011;54385;53.516;49.456;2024-01-15T04:25:13;2.80;;;0.90;;
67554;SDS011;54385;53.516;49.456;2024-01-15T04:27:40;2.33;;;0.80;;
67554;SDS011;54385;53.516;49.456;2024-01-15T04:30:16;1.00;;;0.60;;
67554;SDS011;54385;53.516;49.456;2024-01-15T04:32:43;1.10;;;0.70;;
67554;SDS011;54385;53.516;49.456;2024-01-15T04:38:00;1.00;;;0.60;;
67554;SDS011;54385;53.516;49.456;2024-01-15T04:40:30;2.03;;;0.77;;
67554;SDS011;54385;53.516;49.456;2024-01-15T04:42:58;2.00;;;0.80;;
67554;SDS011;54385;53.516;49.456;2024-01-15T04:45:28;1.08;;;0.73;;
67554;SDS011;54385;53.516;49.456;2024-01-15T04:48:18;3.65;;;1.08;;
67554;SDS011;54385;53.516;49.456;2024-01-15T04:50:53;2.05;;;0.80;;
67554;SDS011;54385;53.516;49.456;2024-01-15T04:53:20;1.65;;;0.77;;
67554;SDS011;54385;53.516;49.456;2024-01-15T04:56:03;2.78;;;0.88;;
67554;SDS011;54385;53.516;49.456;2024-01-15T05:05:31;2.72;;;0.73;;
67554;SDS011;54385;53.516;49.456;2024-01-15T05:08:05;1.30;;;1.00;;
67554;SDS011;54385;53.516;49.456;2024-01-15T05:10:46;1.83;;;1.00;;
67554;SDS011;54385;53.516;49.456;2024-01-15T05:13:20;2.50;;;1.00;;
67554;SDS011;54385;53.516;49.456;2024-01-15T05:16:05;1.30;;;0.80;;
67554;SDS011;54385;53.516;49.456;2024-01-15T05:18:44;1.80;;;1.08;;
67554;SDS011;54385;53.516;49.456;2024-01-15T05:22:10;2.80;;;1.20;;
67554;SDS011;54385;53.516;49.456;2024-01-15T05:29:31;2.22;;;1.40;;
67554;SDS011;54385;53.516;49.456;2024-01-15T05:32:39;1.92;;;1.35;;
67554;SDS011;54385;53.516;49.456;2024-01-15T05:35:09;1.63;;;1.20;;
67554;SDS011;54385;53.516;49.456;2024-01-15T05:37:45;1.60;;;1.20;;
67554;SDS011;54385;53.516;49.456;2024-01-15T05:40:13;2.90;;;1.27;;
67554;SDS011;54385;53.516;49.456;2024-01-15T05:42:56;2.15;;;1.30;;
67554;SDS011;54385;53.516;49.456;2024-01-15T05:45:42;2.20;;;1.40;;
67554;SDS011;54385;53.516;49.456;2024-01-15T05:48:15;2.33;;;1.48;;
67554;SDS011;54385;53.516;49.456;2024-01-15T05:53:40;3.47;;;1.73;;
67554;SDS011;54385;53.516;49.456;2024-01-15T05:56:09;1.70;;;1.48;;
67554;SDS011;54385;53.516;49.456;2024-01-15T05:58:36;3.70;;;1.70;;
67554;SDS011;54385;53.516;49.456;2024-01-15T06:01:06;2.35;;;1.60;;
67554;SDS011;54385;53.516;49.456;2024-01-15T06:06:23;2.50;;;1.67;;
67554;SDS011;54385;53.516;49.456;2024-01-15T06:09:01;3.20;;;1.65;;
67554;SDS011;54385;53.516;49.456;2024-01-15T06:11:33;3.63;;;1.80;;
67554;SDS011;54385;53.516;49.456;2024-01-15T06:14:16;2.88;;;1.83;;
67554;SDS011;54385;53.516;49.456;2024-01-15T06:16:43;2.72;;;1.80;;
67554;SDS011;54385;53.516;49.456;2024-01-15T06:19:10;4.18;;;2.10;;
67554;SDS011;54385;53.516;49.456;2024-01-15T06:22:10;3.00;;;1.80;;
67554;SDS011;54385;53.516;49.456;2024-01-15T06:30:24;3.42;;;1.90;;
67554;SDS011;54385;53.516;49.456;2024-01-15T06:33:01;3.03;;;1.83;;
67554;SDS011;54385;53.516;49.456;2024-01-15T06:36:01;4.70;;;2.20;;
67554;SDS011;54385;53.516;49.456;2024-01-15T06:38:30;3.58;;;2.00;;
67554;SDS011;54385;53.516;49.456;2024-01-15T06:40:56;4.55;;;2.10;;
67554;SDS011;54385;53.516;49.456;2024-01-15T06:43:41;3.55;;;2.33;;
67554;SDS011;54385;53.516;49.456;2024-01-15T06:46:20;4.80;;;2.38;;
67554;SDS011;54385;53.516;49.456;2024-01-15T06:49:12;4.18;;;2.58;;
67554;SDS011;54385;53.516;49.456;2024-01-15T06:52:09;4.55;;;2.70;;
67554;SDS011;54385;53.516;49.456;2024-01-15T06:57:34;2.78;;;2.00;;
67554;SDS011;54385;53.516;49.456;2024-01-15T07:00:01;3.20;;;2.15;;
67554;SDS011;54385;53.516;49.456;2024-01-15T07:02:36;4.55;;;1.98;;
67554;SDS011;54385;53.516;49.456;2024-01-15T07:05:11;3.78;;;2.42;;
67554;SDS011;54385;53.516;49.456;2024-01-15T07:07:38;4.13;;;2.55;;
67554;SDS011;54385;53.516;49.456;2024-01-15T07:10:05;3.78;;;2.70;;
67554;SDS011;54385;53.516;49.456;2024-01-15T07:12:32;4.43;;;2.83;;
67554;SDS011;54385;53.516;49.456;2024-01-15T07:15:02;5.10;;;2.80;;
67554;SDS011;54385;53.516;49.456;2024-01-15T07:17:34;7.75;;;2.80;;
67554;SDS011;54385;53.516;49.456;2024-01-15T07:20:07;4.88;;;2.85;;
67554;SDS011;54385;53.516;49.456;2024-01-15T07:22:35;3.58;;;2.65;;
67554;SDS011;54385;53.516;49.456;2024-01-15T07:25:24;6.30;;;2.90;;
67554;SDS011;54385;53.516;49.456;2024-01-15T07:28:52;5.32;;;3.08;;
67554;SDS011;54385;53.516;49.456;2024-01-15T07:31:30;3.22;;;2.40;;
67554;SDS011;54385;53.516;49.456;2024-01-15T07:34:09;9.07;;;3.28;;
67554;SDS011;54385;53.516;49.456;2024-01-15T07:39:50;4.93;;;3.42;;
67554;SDS011;54385;53.516;49.456;2024-01-15T07:45:36;4.55;;;3.00;;
67554;SDS011;54385;53.516;49.456;2024-01-15T07:48:09;6.10;;;3.38;;
67554;SDS011;54385;53.516;49.456;2024-01-15T07:53:36;6.05;;;3.38;;
67554;SDS011;54385;53.516;49.456;2024-01-15T07:56:06;5.72;;;3.15;;
67554;SDS011;54385;53.516;49.456;2024-01-15T07:58:36;5.57;;;3.60;;
67554;SDS011;54385;53.516;49.456;2024-01-15T08:01:28;5.55;;;3.40;;
67554;SDS011;54385;53.516;49.456;2024-01-15T08:04:24;4.80;;;3.33;;
67554;SDS011;54385;53.516;49.456;2024-01-15T08:06:53;4.78;;;3.30;;
67554;SDS011;54385;53.516;49.456;2024-01-15T08:16:30;5.90;;;3.70;;
67554;SDS011;54385;53.516;49.456;2024-01-15T08:19:26;5.75;;;3.28;;
67554;SDS011;54385;53.516;49.456;2024-01-15T08:22:14;5.93;;;3.30;;
67554;SDS011;54385;53.516;49.456;2024-01-15T08:24:44;6.78;;;3.85;;
67554;SDS011;54385;53.516;49.456;2024-01-15T08:27:17;6.68;;;3.65;;
67554;SDS011;54385;53.516;49.456;2024-01-15T08:29:47;5.00;;;3.47;;
67554;SDS011;54385;53.516;49.456;2024-01-15T08:32:48;5.38;;;3.58;;
67554;SDS011;54385;53.516;49.456;2024-01-15T08:35:27;4.82;;;3.53;;
67554;SDS011;54385;53.516;49.456;2024-01-15T08:37:57;6.53;;;3.72;;
67554;SDS011;54385;53.516;49.456;2024-01-15T08:40:42;4.97;;;3.50;;
67554;SDS011;54385;53.516;49.456;2024-01-15T08:43:09;8.60;;;4.05;;
67554;SDS011;54385;53.516;49.456;2024-01-15T08:45:36;6.05;;;3.55;;
67554;SDS011;54385;53.516;49.456;2024-01-15T08:48:09;5.97;;;3.47;;
67554;SDS011;54385;53.516;49.456;2024-01-15T08:50:45;5.00;;;3.40;;
67554;SDS011;54385;53.516;49.456;2024-01-15T08:53:22;6.97;;;3.85;;
67554;SDS011;54385;53.516;49.456;2024-01-15T08:55:50;6.10;;;3.58;;
67554;SDS011;54385;53.516;49.456;2024-01-15T08:58:27;4.22;;;3.30;;
67554;SDS011;54385;53.516;49.456;2024-01-15T09:00:55;4.57;;;3.50;;
67554;SDS011;54385;53.516;49.456;2024-01-15T09:03:49;5.82;;;3.58;;
67554;SDS011;54385;53.516;49.456;2024-01-15T09:06:50;6.30;;;3.83;;
67554;SDS011;54385;53.516;49.456;2024-01-15T09:09:20;5.25;;;3.47;;
67554;SDS011;54385;53.516;49.456;2024-01-15T09:11:51;6.22;;;3.75;;
67554;SDS011;54385;53.516;49.456;2024-01-15T09:14:18;5.75;;;3.35;;
67554;SDS011;54385;53.516;49.456;2024-01-15T09:16:55;5.95;;;3.42;;
67554;SDS011;54385;53.516;49.456;2024-01-15T09:19:25;5.10;;;3.67;;
67554;SDS011;54385;53.516;49.456;2024-01-15T09:21:56;6.13;;;3.22;;
67554;SDS011;54385;53.516;49.456;2024-01-15T09:24:40;4.70;;;3.15;;
67554;SDS011;54385;53.516;49.456;2024-01-15T09:27:31;6.88;;;3.67;;
67554;SDS011;54385;53.516;49.456;2024-01-15T09:30:05;5.93;;;3.78;;
67554;SDS011;54385;53.516;49.456;2024-01-15T09:32:43;4.68;;;3.53;;
67554;SDS011;54385;53.516;49.456;2024-01-15T09:35:39;7.70;;;3.85;;
67554;SDS011;54385;53.516;49.456;2024-01-15T09:38:48;6.93;;;3.72;;
67554;SDS011;54385;53.516;49.456;2024-01-15T09:41:29;4.60;;;3.33;;
67554;SDS011;54385;53.516;49.456;2024-01-15T09:51:33;5.47;;;3.72;;
67554;SDS011;54385;53.516;49.456;2024-01-15T09:54:10;5.15;;;3.28;;
67554;SDS011;54385;53.516;49.456;2024-01-15T09:56:59;5.00;;;3.13;;
67554;SDS011;54385;53.516;49.456;2024-01-15T09:59:37;6.35;;;3.10;;
67554;SDS011;54385;53.516;49.456;2024-01-15T10:02:23;5.70;;;2.83;;
67554;SDS011;54385;53.516;49.456;2024-01-15T10:04:49;6.28;;;3.00;;
67554;SDS011;54385;53.516;49.456;2024-01-15T10:07:19;5.55;;;3.20;;
67554;SDS011;54385;53.516;49.456;2024-01-15T10:09:48;5.20;;;3.33;;
67554;SDS011;54385;53.516;49.456;2024-01-15T10:12:17;5.15;;;3.15;;
67554;SDS011;54385;53.516;49.456;2024-01-15T10:14:55;4.72;;;3.10;;
67554;SDS011;54385;53.516;49.456;2024-01-15T10:17:27;5.10;;;3.10;;
67554;SDS011;54385;53.516;49.456;2024-01-15T10:20:18;5.18;;;3.05;;
67554;SDS011;54385;53.516;49.456;2024-01-15T10:23:05;5.53;;;3.53;;
67554;SDS011;54385;53.516;49.456;2024-01-15T10:25:47;5.20;;;3.38;;
67554;SDS011;54385;53.516;49.456;2024-01-15T10:28:16;5.35;;;2.92;;
67554;SDS011;54385;53.516;49.456;2024-01-15T10:31:12;7.65;;;3.20;;
67554;SDS011;54385;53.516;49.456;2024-01-15T10:33:46;5.00;;;3.28;;
67554;SDS011;54385;53.516;49.456;2024-01-15T10:36:26;5.22;;;3.00;;
67554;SDS011;54385;53.516;49.456;2024-01-15T10:42:06;5.38;;;3.08;;
67554;SDS011;54385;53.516;49.456;2024-01-15T10:44:44;6.75;;;3.08;;
67554;SDS011;54385;53.516;49.456;2024-01-15T10:47:20;5.88;;;3.30;;
67554;SDS011;54385;53.516;49.456;2024-01-15T10:49:50;6.00;;;2.80;;
67554;SDS011;54385;53.516;49.456;2024-01-15T10:52:27;4.10;;;3.08;;
67554;SDS011;54385;53.516;49.456;2024-01-15T10:54:56;4.65;;;3.22;;
67554;SDS011;54385;53.516;49.456;2024-01-15T10:57:23;5.05;;;2.83;;
67554;SDS011;54385;53.516;49.456;2024-01-15T11:00:18;4.38;;;3.00;;
67554;SDS011;54385;53.516;49.456;2024-01-15T11:03:14;5.70;;;3.00;;
67554;SDS011;54385;53.516;49.456;2024-01-15T11:05:56;4.05;;;3.30;;
67554;SDS011;54385;53.516;49.456;2024-01-15T11:08:32;5.72;;;3.08;;
67554;SDS011;54385;53.516;49.456;2024-01-15T11:11:32;5.57;;;3.22;;
67554;SDS011;54385;53.516;49.456;2024-01-15T11:14:49;6.20;;;3.08;;
67554;SDS011;54385;53.516;49.456;2024-01-15T11:17:19;3.53;;;2.47;;
67554;SDS011;54385;53.516;49.456;2024-01-15T11:20:09;5.93;;;3.50;;
67554;SDS011;54385;53.516;49.456;2024-01-15T11:22:48;4.80;;;3.10;;
67554;SDS011;54385;53.516;49.456;2024-01-15T11:29:28;5.88;;;3.05;;
67554;SDS011;54385;53.516;49.456;2024-01-15T11:32:07;4.78;;;2.90;;
67554;SDS011;54385;53.516;49.456;2024-01-15T11:38:39;6.13;;;3.35;;
67554;SDS011;54385;53.516;49.456;2024-01-15T11:44:08;4.70;;;3.15;;
67554;SDS011;54385;53.516;49.456;2024-01-15T11:46:38;5.13;;;3.35;;
67554;SDS011;54385;53.516;49.456;2024-01-15T11:49:52;7.68;;;3.58;;
67554;SDS011;54385;53.516;49.456;2024-01-15T11:52:39;4.95;;;3.55;;
67554;SDS011;54385;53.516;49.456;2024-01-15T11:58:14;6.93;;;3.58;;
67554;SDS011;54385;53.516;49.456;2024-01-15T12:01:10;3.92;;;3.08;;
67554;SDS011;54385;53.516;49.456;2024-01-15T12:04:05;5.60;;;3.42;;
67554;SDS011;54385;53.516;49.456;2024-01-15T12:06:39;4.93;;;3.35;;
67554;SDS011;54385;53.516;49.456;2024-01-15T12:09:14;4.65;;;3.05;;
67554;SDS011;54385;53.516;49.456;2024-01-15T12:11:51;5.43;;;3.15;;
67554;SDS011;54385;53.516;49.456;2024-01-15T12:14:51;5.10;;;3.50;;
67554;SDS011;54385;53.516;49.456;2024-01-15T12:17:45;5.60;;;3.45;;
67554;SDS011;54385;53.516;49.456;2024-01-15T12:20:13;6.10;;;3.85;;
67554;SDS011;54385;53.516;49.456;2024-01-15T12:22:55;4.85;;;3.17;;
67554;SDS011;54385;53.516;49.456;2024-01-15T12:25:22;5.53;;;4.05;;
67554;SDS011;54385;53.516;49.456;2024-01-15T12:27:50;4.50;;;3.30;;
67554;SDS011;54385;53.516;49.456;2024-01-15T12:30:23;6.20;;;3.63;;
67554;SDS011;54385;53.516;49.456;2024-01-15T12:33:06;5.30;;;3.50;;
67554;SDS011;54385;53.516;49.456;2024-01-15T12:44:00;5.45;;;3.22;;
67554;SDS011;54385;53.516;49.456;2024-01-15T12:46:30;5.15;;;3.40;;
67554;SDS011;54385;53.516;49.456;2024-01-15T12:49:00;5.05;;;3.03;;
67554;SDS011;54385;53.516;49.456;2024-01-15T12:51:38;5.05;;;3.40;;
67554;SDS011;54385;53.516;49.456;2024-01-15T12:54:44;4.60;;;3.28;;
67554;SDS011;54385;53.516;49.456;2024-01-15T12:57:13;4.95;;;3.33;;
67554;SDS011;54385;53.516;49.456;2024-01-15T13:02:33;4.40;;;3.20;;
67554;SDS011;54385;53.516;49.456;2024-01-15T13:05:10;5.63;;;3.80;;
67554;SDS011;54385;53.516;49.456;2024-01-15T13:08:08;4.32;;;3.17;;
67554;SDS011;54385;53.516;49.456;2024-01-15T13:10:58;6.25;;;3.55;;
67554;SDS011;54385;53.516;49.456;2024-01-15T13:13:30;5.95;;;3.42;;
67554;SDS011;54385;53.516;49.456;2024-01-15T13:16:08;5.40;;;3.40;;
67554;SDS011;54385;53.516;49.456;2024-01-15T13:18:35;4.32;;;2.80;;
67554;SDS011;54385;53.516;49.456;2024-01-15T13:21:02;4.97;;;3.33;;
67554;SDS011;54385;53.516;49.456;2024-01-15T13:23:28;5.13;;;3.15;;
67554;SDS011;54385;53.516;49.456;2024-01-15T13:29:07;4.80;;;3.05;;
67554;SDS011;54385;53.516;49.456;2024-01-15T13:31:42;4.30;;;2.92;;
67554;SDS011;54385;53.516;49.456;2024-01-15T13:39:56;4.32;;;2.92;;
67554;SDS011;54385;53.516;49.456;2024-01-15T13:42:47;4.20;;;2.83;;
67554;SDS011;54385;53.516;49.456;2024-01-15T13:45:19;5.35;;;3.55;;
67554;SDS011;54385;53.516;49.456;2024-01-15T13:47:46;5.25;;;3.25;;
67554;SDS011;54385;53.516;49.456;2024-01-15T13:50:16;4.28;;;3.03;;
67554;SDS011;54385;53.516;49.456;2024-01-15T13:55:36;5.72;;;3.50;;
67554;SDS011;54385;53.516;49.456;2024-01-15T13:58:03;4.53;;;3.05;;
67554;SDS011;54385;53.516;49.456;2024-01-15T14:00:33;4.53;;;3.10;;
67554;SDS011;54385;53.516;49.456;2024-01-15T14:03:02;3.72;;;2.70;;
67554;SDS011;54385;53.516;49.456;2024-01-15T14:05:29;4.03;;;3.28;;
67554;SDS011;54385;53.516;49.456;2024-01-15T14:08:16;5.03;;;3.33;;
67554;SDS011;54385;53.516;49.456;2024-01-15T14:11:12;5.63;;;3.33;;
67554;SDS011;54385;53.516;49.456;2024-01-15T14:13:41;4.10;;;2.65;;
67554;SDS011;54385;53.516;49.456;2024-01-15T14:16:08;5.03;;;3.40;;
67554;SDS011;54385;53.516;49.456;2024-01-15T14:18:37;4.72;;;3.20;;
67554;SDS011;54385;53.516;49.456;2024-01-15T14:23:58;4.22;;;2.88;;
67554;SDS011;54385;53.516;49.456;2024-01-15T14:26:28;4.05;;;3.03;;
67554;SDS011;54385;53.516;49.456;2024-01-15T14:29:06;4.45;;;2.75;;
67554;SDS011;54385;53.516;49.456;2024-01-15T14:31:33;5.03;;;3.35;;
67554;SDS011;54385;53.516;49.456;2024-01-15T14:34:03;5.25;;;3.00;;
67554;SDS011;54385;53.516;49.456;2024-01-15T14:39:24;5.00;;;2.97;;
67554;SDS011;54385;53.516;49.456;2024-01-15T14:41:51;3.90;;;2.80;;
67554;SDS011;54385;53.516;49.456;2024-01-15T14:44:19;4.78;;;2.83;;
67554;SDS011;54385;53.516;49.456;2024-01-15T14:46:51;5.75;;;2.92;;
67554;SDS011;54385;53.516;49.456;2024-01-15T14:49:20;4.97;;;2.92;;
67554;SDS011;54385;53.516;49.456;2024-01-15T14:51:47;3.30;;;2.22;;
67554;SDS011;54385;53.516;49.456;2024-01-15T14:54:15;3.60;;;2.50;;
67554;SDS011;54385;53.516;49.456;2024-01-15T14:59:30;4.32;;;3.10;;
67554;SDS011;54385;53.516;49.456;2024-01-15T15:04:44;4.72;;;2.75;;
67554;SDS011;54385;53.516;49.456;2024-01-15T15:07:14;3.15;;;2.50;;
67554;SDS011;54385;53.516;49.456;2024-01-15T15:09:41;3.88;;;2.75;;
67554;SDS011;54385;53.516;49.456;2024-01-15T15:12:17;4.53;;;2.80;;
67554;SDS011;54385;53.516;49.456;2024-01-15T15:14:44;4.30;;;2.80;;
67554;SDS011;54385;53.516;49.456;2024-01-15T15:17:30;4.18;;;2.80;;
67554;SDS011;54385;53.516;49.456;2024-01-15T15:19:57;5.32;;;2.45;;
67554;SDS011;54385;53.516;49.456;2024-01-15T15:22:28;4.20;;;2.63;;
67554;SDS011;54385;53.516;49.456;2024-01-15T15:25:01;3.75;;;2.53;;
67554;SDS011;54385;53.516;49.456;2024-01-15T15:27:28;3.55;;;2.58;;
67554;SDS011;54385;53.516;49.456;2024-01-15T15:30:02;3.67;;;2.65;;
67554;SDS011;54385;53.516;49.456;2024-01-15T15:32:30;3.00;;;2.25;;
67554;SDS011;54385;53.516;49.456;2024-01-15T15:35:07;4.25;;;2.67;;
67554;SDS011;54385;53.516;49.456;2024-01-15T15:37:35;4.13;;;2.78;;
67554;SDS011;54385;53.516;49.456;2024-01-15T15:40:02;3.47;;;2.50;;
67554;SDS011;54385;53.516;49.456;2024-01-15T15:42:29;4.32;;;2.67;;
67554;SDS011;54385;53.516;49.456;2024-01-15T15:45:02;3.03;;;2.22;;
67554;SDS011;54385;53.516;49.456;2024-01-15T15:47:29;4.50;;;2.88;;
67554;SDS011;54385;53.516;49.456;2024-01-15T15:49:56;3.33;;;2.40;;
67554;SDS011;54385;53.516;49.456;2024-01-15T15:52:23;4.75;;;2.75;;
67554;SDS011;54385;53.516;49.456;2024-01-15T15:54:49;3.75;;;2.30;;
67554;SDS011;54385;53.516;49.456;2024-01-15T15:57:16;3.75;;;2.63;;
67554;SDS011;54385;53.516;49.456;2024-01-15T15:59:46;4.00;;;2.67;;
67554;SDS011;54385;53.516;49.456;2024-01-15T16:02:12;3.67;;;2.28;;
67554;SDS011;54385;53.516;49.456;2024-01-15T16:04:41;3.83;;;2.90;;
67554;SDS011;54385;53.516;49.456;2024-01-15T16:07:31;3.97;;;2.60;;
67554;SDS011;54385;53.516;49.456;2024-01-15T16:09:58;3.28;;;1.95;;
67554;SDS011;54385;53.516;49.456;2024-01-15T16:12:30;3.65;;;2.30;;
67554;SDS011;54385;53.516;49.456;2024-01-15T16:15:17;4.28;;;2.22;;
67554;SDS011;54385;53.516;49.456;2024-01-15T16:20:48;3.65;;;2.20;;
67554;SDS011;54385;53.516;49.456;2024-01-15T16:23:15;3.10;;;1.73;;
67554;SDS011;54385;53.516;49.456;2024-01-15T16:25:42;3.67;;;2.35;;
67554;SDS011;54385;53.516;49.456;2024-01-15T16:29:02;3.08;;;1.90;;
67554;SDS011;54385;53.516;49.456;2024-01-15T16:31:29;3.92;;;2.30;;
67554;SDS011;54385;53.516;49.456;2024-01-15T16:33:57;3.38;;;2.20;;
67554;SDS011;54385;53.516;49.456;2024-01-15T16:36:30;3.28;;;2.30;;
67554;SDS011;54385;53.516;49.456;2024-01-15T16:38:57;4.20;;;2.60;;
67554;SDS011;54385;53.516;49.456;2024-01-15T16:44:44;2.72;;;2.08;;
67554;SDS011;54385;53.516;49.456;2024-01-15T16:50:04;4.57;;;2.50;;
67554;SDS011;54385;53.516;49.456;2024-01-15T16:52:35;3.22;;;2.00;;
67554;SDS011;54385;53.516;49.456;2024-01-15T16:55:05;4.32;;;2.22;;
67554;SDS011;54385;53.516;49.456;2024-01-15T16:57:53;3.03;;;2.13;;
67554;SDS011;54385;53.516;49.456;2024-01-15T17:00:25;3.90;;;2.33;;
67554;SDS011;54385;53.516;49.456;2024-01-15T17:02:53;2.70;;;1.92;;
67554;SDS011;54385;53.516;49.456;2024-01-15T17:05:23;3.47;;;2.10;;
67554;SDS011;54385;53.516;49.456;2024-01-15T17:07:53;3.80;;;2.10;;
67554;SDS011;54385;53.516;49.456;2024-01-15T17:10:25;3.15;;;2.05;;
67554;SDS011;54385;53.516;49.456;2024-01-15T17:12:55;3.60;;;1.90;;
67554;SDS011;54385;53.516;49.456;2024-01-15T17:15:50;3.70;;;2.10;;
67554;SDS011;54385;53.516;49.456;2024-01-15T17:18:24;3.55;;;2.17;;
67554;SDS011;54385;53.516;49.456;2024-01-15T17:20:50;3.85;;;1.92;;
67554;SDS011;54385;53.516;49.456;2024-01-15T17:23:21;2.70;;;1.80;;